sensor_id;sensor_type;location;lat;lon;timestamp;P1;durP1;ratioP1;P2;durP2;ratioP2
10029;SDS011;5055;52.054;8.524;2023-04-10T00:00:27;0.50;;;0.50;;
10029;SDS011;5055;52.054;8.524;2023-04-10T00:02:57;0.40;;;0.40;;
10029;SDS011;5055;52.054;8.524;2023-04-10T00:05:26;0.40;;;0.40;;
10029;SDS011;5055;52.054;8.524;2023-04-10T00:07:54;0.40;;;0.40;;
10029;SDS011;5055;52.054;8.524;2023-04-10T00:10:22;0.40;;;0.40;;
10029;SDS011;5055;52.054;8.524;2023-04-10T00:12:53;0.40;;;0.40;;
10029;SDS011;5055;52.054;8.524;2023-04-10T00:15:21;0.60;;;0.60;;
10029;SDS011;5055;52.054;8.524;2023-04-10T00:17:50;0.30;;;0.30;;
10029;SDS011;5055;52.054;8.524;2023-04-10T00:20:20;0.47;;;0.47;;
10029;SDS011;5055;52.054;8.524;2023-04-10T00:22:51;0.50;;;0.50;;
10029;SDS011;5055;52.054;8.524;2023-04-10T00:25:19;0.40;;;0.40;;
10029;SDS011;5055;52.054;8.524;2023-04-10T00:27:48;0.40;;;0.40;;
10029;SDS011;5055;52.054;8.524;2023-04-10T00:30:18;0.50;;;0.50;;
10029;SDS011;5055;52.054;8.524;2023-04-10T00:32:46;0.40;;;0.40;;
10029;SDS011;5055;52.054;8.524;2023-04-10T00:35:14;0.47;;;0.47;;
10029;SDS011;5055;52.054;8.524;2023-04-10T00:37:42;0.50;;;0.50;;
10029;SDS011;5055;52.054;8.524;2023-04-10T00:40:10;0.30;;;0.30;;
10029;SDS011;5055;52.054;8.524;2023-04-10T00:42:38;0.30;;;0.30;;
10029;SDS011;5055;52.054;8.524;2023-04-10T00:45:07;0.40;;;0.40;;
10029;SDS011;5055;52.054;8.524;2023-04-10T00:47:37;0.40;;;0.40;;
10029;SDS011;5055;52.054;8.524;2023-04-10T00:50:06;0.33;;;0.33;;
10029;SDS011;5055;52.054;8.524;2023-04-10T00:52:34;0.40;;;0.40;;
10029;SDS011;5055;52.054;8.524;2023-04-10T00:55:03;0.50;;;0.50;;
10029;SDS011;5055;52.054;8.524;2023-04-10T00:57:32;0.53;;;0.53;;
10029;SDS011;5055;52.054;8.524;2023-04-10T01:00:00;0.53;;;0.53;;
10029;SDS011;5055;52.054;8.524;2023-04-10T01:02:29;0.50;;;0.50;;
10029;SDS011;5055;52.054;8.524;2023-04-10T01:04:59;0.50;;;0.50;;
10029;SDS011;5055;52.054;8.524;2023-04-10T01:07:29;0.47;;;0.47;;
10029;SDS011;5055;52.054;8.524;2023-04-10T01:10:11;0.40;;;0.40;;
10029;SDS011;5055;52.054;8.524;2023-04-10T01:12:47;0.60;;;0.60;;
10029;SDS011;5055;52.054;8.524;2023-04-10T01:15:22;0.40;;;0.40;;
10029;SDS011;5055;52.054;8.524;2023-04-10T01:17:54;0.40;;;0.40;;
10029;SDS011;5055;52.054;8.524;2023-04-10T01:20:28;0.43;;;0.43;;
10029;SDS011;5055;52.054;8.524;2023-04-10T01:23:04;0.50;;;0.50;;
10029;SDS011;5055;52.054;8.524;2023-04-10T01:25:55;0.40;;;0.40;;
10029;SDS011;5055;52.054;8.524;2023-04-10T01:31:20;0.40;;;0.40;;
10029;SDS011;5055;52.054;8.524;2023-04-10T01:33:55;0.50;;;0.50;;
10029;SDS011;5055;52.054;8.524;2023-04-10T01:36:26;0.40;;;0.40;;
10029;SDS011;5055;52.054;8.524;2023-04-10T01:38:58;0.53;;;0.53;;
10029;SDS011;5055;52.054;8.524;2023-04-10T01:41:27;0.47;;;0.47;;
10029;SDS011;5055;52.054;8.524;2023-04-10T01:43:58;0.37;;;0.37;;
10029;SDS011;5055;52.054;8.524;2023-04-10T01:46:29;0.33;;;0.33;;
10029;SDS011;5055;52.054;8.524;2023-04-10T01:48:59;0.67;;;0.67;;
10029;SDS011;5055;52.054;8.524;2023-04-10T01:51:29;0.40;;;0.40;;
10029;SDS011;5055;52.054;8.524;2023-04-10T01:53:59;0.60;;;0.60;;
10029;SDS011;5055;52.054;8.524;2023-04-10T01:56:30;0.40;;;0.40;;
10029;SDS011;5055;52.054;8.524;2023-04-10T01:59:01;0.47;;;0.47;;
10029;SDS011;5055;52.054;8.524;2023-04-10T02:01:30;0.50;;;0.50;;
10029;SDS011;5055;52.054;8.524;2023-04-10T02:03:59;0.60;;;0.60;;
10029;SDS011;5055;52.054;8.524;2023-04-10T02:06:29;0.40;;;0.40;;
10029;SDS011;5055;52.054;8.524;2023-04-10T02:09:09;0.57;;;0.57;;
10029;SDS011;5055;52.054;8.524;2023-04-10T02:11:43;0.40;;;0.40;;
10029;SDS011;5055;52.054;8.524;2023-04-10T02:14:19;0.37;;;0.37;;
10029;SDS011;5055;52.054;8.524;2023-04-10T02:16:49;0.30;;;0.30;;
10029;SDS011;5055;52.054;8.524;2023-04-10T02:19:21;0.50;;;0.50;;
10029;SDS011;5055;52.054;8.524;2023-04-10T02:21:51;0.50;;;0.50;;
10029;SDS011;5055;52.054;8.524;2023-04-10T02:24:20;0.50;;;0.50;;
10029;SDS011;5055;52.054;8.524;2023-04-10T02:26:49;0.40;;;0.40;;
10029;SDS011;5055;52.054;8.524;2023-04-10T02:29:17;0.30;;;0.30;;
10029;SDS011;5055;52.054;8.524;2023-04-10T02:31:47;0.60;;;0.60;;
10029;SDS011;5055;52.054;8.524;2023-04-10T02:34:16;0.50;;;0.50;;
10029;SDS011;5055;52.054;8.524;2023-04-10T02:36:44;0.40;;;0.40;;
10029;SDS011;5055;52.054;8.524;2023-04-10T02:39:12;0.60;;;0.60;;
10029;SDS011;5055;52.054;8.524;2023-04-10T02:41:40;0.40;;;0.40;;
10029;SDS011;5055;52.054;8.524;2023-04-10T02:44:08;0.63;;;0.63;;
10029;SDS011;5055;52.054;8.524;2023-04-10T02:46:38;0.50;;;0.50;;
10029;SDS011;5055;52.054;8.524;2023-04-10T02:49:07;0.37;;;0.37;;
10029;SDS011;5055;52.054;8.524;2023-04-10T02:51:35;0.50;;;0.50;;
10029;SDS011;5055;52.054;8.524;2023-04-10T02:54:03;0.30;;;0.30;;
10029;SDS011;5055;52.054;8.524;2023-04-10T02:56:32;0.50;;;0.50;;
10029;SDS011;5055;52.054;8.524;2023-04-10T02:59:00;0.43;;;0.43;;
10029;SDS011;5055;52.054;8.524;2023-04-10T03:01:29;0.30;;;0.30;;
10029;SDS011;5055;52.054;8.524;2023-04-10T03:03:58;0.43;;;0.43;;
10029;SDS011;5055;52.054;8.524;2023-04-10T03:06:28;0.60;;;0.60;;
10029;SDS011;5055;52.054;8.524;2023-04-10T03:08:56;0.47;;;0.47;;
10029;SDS011;5055;52.054;8.524;2023-04-10T03:11:24;0.50;;;0.50;;
10029;SDS011;5055;52.054;8.524;2023-04-10T03:13:52;0.77;;;0.77;;
10029;SDS011;5055;52.054;8.524;2023-04-10T03:16:21;0.50;;;0.50;;
10029;SDS011;5055;52.054;8.524;2023-04-10T03:18:49;0.47;;;0.47;;
10029;SDS011;5055;52.054;8.524;2023-04-10T03:21:18;0.50;;;0.50;;
10029;SDS011;5055;52.054;8.524;2023-04-10T03:23:47;0.40;;;0.40;;
10029;SDS011;5055;52.054;8.524;2023-04-10T03:26:15;0.57;;;0.57;;
10029;SDS011;5055;52.054;8.524;2023-04-10T03:28:43;0.43;;;0.43;;
10029;SDS011;5055;52.054;8.524;2023-04-10T03:31:11;0.50;;;0.50;;
10029;SDS011;5055;52.054;8.524;2023-04-10T03:33:39;0.40;;;0.40;;
10029;SDS011;5055;52.054;8.524;2023-04-10T03:36:07;0.70;;;0.70;;
10029;SDS011;5055;52.054;8.524;2023-04-10T03:38:37;0.50;;;0.50;;
10029;SDS011;5055;52.054;8.524;2023-04-10T03:41:05;0.50;;;0.50;;
10029;SDS011;5055;52.054;8.524;2023-04-10T03:43:33;0.60;;;0.60;;
10029;SDS011;5055;52.054;8.524;2023-04-10T03:46:01;0.40;;;0.40;;
10029;SDS011;5055;52.054;8.524;2023-04-10T03:48:29;0.40;;;0.40;;
10029;SDS011;5055;52.054;8.524;2023-04-10T03:50:58;0.40;;;0.40;;
10029;SDS011;5055;52.054;8.524;2023-04-10T03:53:26;0.50;;;0.50;;
10029;SDS011;5055;52.054;8.524;2023-04-10T03:55:56;0.40;;;0.40;;
10029;SDS011;5055;52.054;8.524;2023-04-10T03:58:24;0.40;;;0.40;;
10029;SDS011;5055;52.054;8.524;2023-04-10T04:00:52;0.50;;;0.50;;
10029;SDS011;5055;52.054;8.524;2023-04-10T04:03:20;0.50;;;0.50;;
10029;SDS011;5055;52.054;8.524;2023-04-10T04:05:48;0.60;;;0.60;;
10029;SDS011;5055;52.054;8.524;2023-04-10T04:08:17;0.60;;;0.60;;
10029;SDS011;5055;52.054;8.524;2023-04-10T04:10:45;0.50;;;0.50;;
10029;SDS011;5055;52.054;8.524;2023-04-10T04:13:14;0.30;;;0.30;;
10029;SDS011;5055;52.054;8.524;2023-04-10T04:15:43;0.53;;;0.53;;
10029;SDS011;5055;52.054;8.524;2023-04-10T04:18:13;0.60;;;0.60;;
10029;SDS011;5055;52.054;8.524;2023-04-10T04:20:41;0.60;;;0.60;;
10029;SDS011;5055;52.054;8.524;2023-04-10T04:23:09;0.80;;;0.80;;
10029;SDS011;5055;52.054;8.524;2023-04-10T04:25:37;0.47;;;0.47;;
10029;SDS011;5055;52.054;8.524;2023-04-10T04:28:05;0.50;;;0.50;;
10029;SDS011;5055;52.054;8.524;2023-04-10T04:30:34;0.50;;;0.50;;
10029;SDS011;5055;52.054;8.524;2023-04-10T04:33:02;0.40;;;0.40;;
10029;SDS011;5055;52.054;8.524;2023-04-10T04:35:31;0.60;;;0.60;;
10029;SDS011;5055;52.054;8.524;2023-04-10T04:37:59;0.60;;;0.60;;
10029;SDS011;5055;52.054;8.524;2023-04-10T04:40:27;0.80;;;0.80;;
10029;SDS011;5055;52.054;8.524;2023-04-10T04:42:55;0.50;;;0.50;;
10029;SDS011;5055;52.054;8.524;2023-04-10T04:45:23;0.50;;;0.50;;
10029;SDS011;5055;52.054;8.524;2023-04-10T04:47:53;0.50;;;0.50;;
10029;SDS011;5055;52.054;8.524;2023-04-10T04:50:21;0.60;;;0.60;;
10029;SDS011;5055;52.054;8.524;2023-04-10T04:52:49;0.80;;;0.80;;
10029;SDS011;5055;52.054;8.524;2023-04-10T04:55:17;0.50;;;0.50;;
10029;SDS011;5055;52.054;8.524;2023-04-10T04:57:45;0.60;;;0.60;;
10029;SDS011;5055;52.054;8.524;2023-04-10T05:00:13;0.43;;;0.43;;
10029;SDS011;5055;52.054;8.524;2023-04-10T05:02:41;0.40;;;0.40;;
10029;SDS011;5055;52.054;8.524;2023-04-10T05:05:11;0.40;;;0.40;;
10029;SDS011;5055;52.054;8.524;2023-04-10T05:07:39;0.40;;;0.40;;
10029;SDS011;5055;52.054;8.524;2023-04-10T05:10:07;0.50;;;0.50;;
10029;SDS011;5055;52.054;8.524;2023-04-10T05:12:35;0.60;;;0.60;;
10029;SDS011;5055;52.054;8.524;2023-04-10T05:15:04;0.60;;;0.60;;
10029;SDS011;5055;52.054;8.524;2023-04-10T05:17:33;0.50;;;0.50;;
10029;SDS011;5055;52.054;8.524;2023-04-10T05:20:01;0.60;;;0.60;;
10029;SDS011;5055;52.054;8.524;2023-04-10T05:22:31;0.30;;;0.30;;
10029;SDS011;5055;52.054;8.524;2023-04-10T05:24:59;0.40;;;0.40;;
10029;SDS011;5055;52.054;8.524;2023-04-10T05:27:27;0.33;;;0.33;;
10029;SDS011;5055;52.054;8.524;2023-04-10T05:29:55;0.40;;;0.40;;
10029;SDS011;5055;52.054;8.524;2023-04-10T05:32:23;0.40;;;0.40;;
10029;SDS011;5055;52.054;8.524;2023-04-10T05:34:52;0.40;;;0.40;;
10029;SDS011;5055;52.054;8.524;2023-04-10T05:37:20;0.40;;;0.40;;
10029;SDS011;5055;52.054;8.524;2023-04-10T05:39:49;0.40;;;0.40;;
10029;SDS011;5055;52.054;8.524;2023-04-10T05:42:18;0.30;;;0.30;;
10029;SDS011;5055;52.054;8.524;2023-04-10T05:44:49;0.40;;;0.40;;
10029;SDS011;5055;52.054;8.524;2023-04-10T05:47:18;0.50;;;0.50;;
10029;SDS011;5055;52.054;8.524;2023-04-10T05:49:46;0.47;;;0.47;;
10029;SDS011;5055;52.054;8.524;2023-04-10T05:52:14;0.30;;;0.30;;
10029;SDS011;5055;52.054;8.524;2023-04-10T05:54:42;0.40;;;0.40;;
10029;SDS011;5055;52.054;8.524;2023-04-10T05:57:11;0.50;;;0.50;;
10029;SDS011;5055;52.054;8.524;2023-04-10T05:59:39;0.40;;;0.40;;
10029;SDS011;5055;52.054;8.524;2023-04-10T06:02:07;0.30;;;0.30;;
10029;SDS011;5055;52.054;8.524;2023-04-10T06:04:35;0.60;;;0.60;;
10029;SDS011;5055;52.054;8.524;2023-04-10T06:07:04;0.40;;;0.40;;
10029;SDS011;5055;52.054;8.524;2023-04-10T06:09:32;0.50;;;0.50;;
10029;SDS011;5055;52.054;8.524;2023-04-10T06:12:00;0.30;;;0.30;;
10029;SDS011;5055;52.054;8.524;2023-04-10T06:14:29;0.30;;;0.30;;
10029;SDS011;5055;52.054;8.524;2023-04-10T06:16:57;0.40;;;0.40;;
10029;SDS011;5055;52.054;8.524;2023-04-10T06:19:25;0.30;;;0.30;;
10029;SDS011;5055;52.054;8.524;2023-04-10T06:21:53;0.33;;;0.33;;
10029;SDS011;5055;52.054;8.524;2023-04-10T06:24:21;0.40;;;0.40;;
10029;SDS011;5055;52.054;8.524;2023-04-10T06:26:49;0.40;;;0.40;;
10029;SDS011;5055;52.054;8.524;2023-04-10T06:29:17;0.50;;;0.50;;
10029;SDS011;5055;52.054;8.524;2023-04-10T06:31:47;0.33;;;0.33;;
10029;SDS011;5055;52.054;8.524;2023-04-10T06:34:15;0.30;;;0.30;;
10029;SDS011;5055;52.054;8.524;2023-04-10T06:36:43;0.43;;;0.43;;
10029;SDS011;5055;52.054;8.524;2023-04-10T06:39:11;0.30;;;0.30;;
10029;SDS011;5055;52.054;8.524;2023-04-10T06:41:39;0.30;;;0.30;;
10029;SDS011;5055;52.054;8.524;2023-04-10T06:44:07;0.37;;;0.37;;
10029;SDS011;5055;52.054;8.524;2023-04-10T06:46:35;0.40;;;0.40;;
10029;SDS011;5055;52.054;8.524;2023-04-10T06:49:05;0.30;;;0.30;;
10029;SDS011;5055;52.054;8.524;2023-04-10T06:51:33;0.30;;;0.30;;
10029;SDS011;5055;52.054;8.524;2023-04-10T06:54:01;0.30;;;0.30;;
10029;SDS011;5055;52.054;8.524;2023-04-10T06:56:29;0.30;;;0.30;;
10029;SDS011;5055;52.054;8.524;2023-04-10T06:58:57;0.30;;;0.30;;
10029;SDS011;5055;52.054;8.524;2023-04-10T07:01:26;0.30;;;0.30;;
10029;SDS011;5055;52.054;8.524;2023-04-10T07:03:54;0.40;;;0.40;;
10029;SDS011;5055;52.054;8.524;2023-04-10T07:06:24;0.40;;;0.40;;
10029;SDS011;5055;52.054;8.524;2023-04-10T07:08:52;0.30;;;0.30;;
10029;SDS011;5055;52.054;8.524;2023-04-10T07:11:21;0.40;;;0.40;;
10029;SDS011;5055;52.054;8.524;2023-04-10T07:13:49;0.30;;;0.30;;
10029;SDS011;5055;52.054;8.524;2023-04-10T07:16:19;0.30;;;0.30;;
10029;SDS011;5055;52.054;8.524;2023-04-10T07:18:47;0.30;;;0.30;;
10029;SDS011;5055;52.054;8.524;2023-04-10T07:21:15;0.40;;;0.40;;
10029;SDS011;5055;52.054;8.524;2023-04-10T07:23:45;0.40;;;0.40;;
10029;SDS011;5055;52.054;8.524;2023-04-10T07:26:13;0.30;;;0.30;;
10029;SDS011;5055;52.054;8.524;2023-04-10T07:28:41;0.30;;;0.30;;
10029;SDS011;5055;52.054;8.524;2023-04-10T07:31:09;0.30;;;0.30;;
10029;SDS011;5055;52.054;8.524;2023-04-10T07:33:39;0.40;;;0.40;;
10029;SDS011;5055;52.054;8.524;2023-04-10T07:36:07;0.30;;;0.30;;
10029;SDS011;5055;52.054;8.524;2023-04-10T07:38:35;0.30;;;0.30;;
10029;SDS011;5055;52.054;8.524;2023-04-10T07:41:05;0.20;;;0.20;;
10029;SDS011;5055;52.054;8.524;2023-04-10T07:43:35;0.23;;;0.23;;
10029;SDS011;5055;52.054;8.524;2023-04-10T07:46:03;0.20;;;0.20;;
10029;SDS011;5055;52.054;8.524;2023-04-10T07:48:32;0.30;;;0.30;;
10029;SDS011;5055;52.054;8.524;2023-04-10T07:51:00;0.20;;;0.20;;
10029;SDS011;5055;52.054;8.524;2023-04-10T07:53:29;0.30;;;0.30;;
10029;SDS011;5055;52.054;8.524;2023-04-10T07:55:57;0.30;;;0.30;;
10029;SDS011;5055;52.054;8.524;2023-04-10T07:58:26;0.30;;;0.30;;
10029;SDS011;5055;52.054;8.524;2023-04-10T08:00:55;0.20;;;0.20;;
10029;SDS011;5055;52.054;8.524;2023-04-10T08:03:23;0.30;;;0.30;;
10029;SDS011;5055;52.054;8.524;2023-04-10T08:05:53;0.30;;;0.30;;
10029;SDS011;5055;52.054;8.524;2023-04-10T08:08:21;0.30;;;0.30;;
10029;SDS011;5055;52.054;8.524;2023-04-10T08:10:49;0.20;;;0.20;;
10029;SDS011;5055;52.054;8.524;2023-04-10T08:13:17;0.30;;;0.30;;
10029;SDS011;5055;52.054;8.524;2023-04-10T08:15:47;0.30;;;0.30;;
10029;SDS011;5055;52.054;8.524;2023-04-10T08:18:15;0.30;;;0.30;;
10029;SDS011;5055;52.054;8.524;2023-04-10T08:20:43;0.40;;;0.40;;
10029;SDS011;5055;52.054;8.524;2023-04-10T08:23:11;0.20;;;0.20;;
10029;SDS011;5055;52.054;8.524;2023-04-10T08:25:46;0.30;;;0.30;;
10029;SDS011;5055;52.054;8.524;2023-04-10T08:28:14;0.40;;;0.40;;
10029;SDS011;5055;52.054;8.524;2023-04-10T08:30:42;0.30;;;0.30;;
10029;SDS011;5055;52.054;8.524;2023-04-10T08:33:12;0.20;;;0.20;;
10029;SDS011;5055;52.054;8.524;2023-04-10T08:35:40;0.20;;;0.20;;
10029;SDS011;5055;52.054;8.524;2023-04-10T08:38:08;0.30;;;0.30;;
10029;SDS011;5055;52.054;8.524;2023-04-10T08:40:39;0.27;;;0.27;;
10029;SDS011;5055;52.054;8.524;2023-04-10T08:43:09;0.30;;;0.30;;
10029;SDS011;5055;52.054;8.524;2023-04-10T08:45:39;0.30;;;0.30;;
10029;SDS011;5055;52.054;8.524;2023-04-10T08:48:07;0.30;;;0.30;;
10029;SDS011;5055;52.054;8.524;2023-04-10T08:50:40;0.20;;;0.20;;
10029;SDS011;5055;52.054;8.524;2023-04-10T08:53:10;0.10;;;0.10;;
10029;SDS011;5055;52.054;8.524;2023-04-10T08:55:40;0.20;;;0.20;;
10029;SDS011;5055;52.054;8.524;2023-04-10T08:58:10;0.30;;;0.30;;
10029;SDS011;5055;52.054;8.524;2023-04-10T09:00:39;0.20;;;0.20;;
10029;SDS011;5055;52.054;8.524;2023-04-10T09:03:08;0.20;;;0.20;;
10029;SDS011;5055;52.054;8.524;2023-04-10T09:05:41;0.30;;;0.30;;
10029;SDS011;5055;52.054;8.524;2023-04-10T09:08:09;0.20;;;0.20;;
10029;SDS011;5055;52.054;8.524;2023-04-10T09:10:38;0.23;;;0.23;;
10029;SDS011;5055;52.054;8.524;2023-04-10T09:13:07;0.30;;;0.30;;
10029;SDS011;5055;52.054;8.524;2023-04-10T09:18:38;0.20;;;0.20;;
10029;SDS011;5055;52.054;8.524;2023-04-10T09:21:10;0.20;;;0.20;;
10029;SDS011;5055;52.054;8.524;2023-04-10T09:23:40;0.20;;;0.20;;
10029;SDS011;5055;52.054;8.524;2023-04-10T09:28:57;0.20;;;0.20;;
10029;SDS011;5055;52.054;8.524;2023-04-10T09:31:27;0.20;;;0.20;;
10029;SDS011;5055;52.054;8.524;2023-04-10T09:34:06;0.20;;;0.20;;
10029;SDS011;5055;52.054;8.524;2023-04-10T09:36:37;0.20;;;0.20;;
10029;SDS011;5055;52.054;8.524;2023-04-10T09:39:07;0.27;;;0.27;;
10029;SDS011;5055;52.054;8.524;2023-04-10T09:44:28;0.20;;;0.20;;
10029;SDS011;5055;52.054;8.524;2023-04-10T09:46:58;0.20;;;0.20;;
10029;SDS011;5055;52.054;8.524;2023-04-10T09:49:43;0.20;;;0.20;;
10029;SDS011;5055;52.054;8.524;2023-04-10T09:52:18;0.20;;;0.20;;
10029;SDS011;5055;52.054;8.524;2023-04-10T09:54:47;0.20;;;0.20;;
10029;SDS011;5055;52.054;8.524;2023-04-10T09:57:15;0.30;;;0.30;;
10029;SDS011;5055;52.054;8.524;2023-04-10T09:59:47;0.20;;;0.20;;
10029;SDS011;5055;52.054;8.524;2023-04-10T10:02:16;0.20;;;0.20;;
10029;SDS011;5055;52.054;8.524;2023-04-10T10:04:46;0.30;;;0.30;;
10029;SDS011;5055;52.054;8.524;2023-04-10T10:07:15;0.20;;;0.20;;
10029;SDS011;5055;52.054;8.524;2023-04-10T10:09:47;0.20;;;0.20;;
10029;SDS011;5055;52.054;8.524;2023-04-10T10:12:19;0.20;;;0.20;;
10029;SDS011;5055;52.054;8.524;2023-04-10T10:14:52;0.20;;;0.20;;
10029;SDS011;5055;52.054;8.524;2023-04-10T10:17:27;0.20;;;0.20;;
10029;SDS011;5055;52.054;8.524;2023-04-10T10:20:03;0.20;;;0.20;;
10029;SDS011;5055;52.054;8.524;2023-04-10T10:22:37;0.20;;;0.20;;
10029;SDS011;5055;52.054;8.524;2023-04-10T10:25:05;0.20;;;0.20;;
10029;SDS011;5055;52.054;8.524;2023-04-10T10:27:35;0.27;;;0.27;;
10029;SDS011;5055;52.054;8.524;2023-04-10T10:30:05;0.20;;;0.20;;
10029;SDS011;5055;52.054;8.524;2023-04-10T10:32:55;0.20;;;0.20;;
10029;SDS011;5055;52.054;8.524;2023-04-10T10:35:25;0.20;;;0.20;;
10029;SDS011;5055;52.054;8.524;2023-04-10T10:37:56;0.20;;;0.20;;
10029;SDS011;5055;52.054;8.524;2023-04-10T10:40:27;0.20;;;0.20;;
10029;SDS011;5055;52.054;8.524;2023-04-10T10:43:00;0.20;;;0.20;;
10029;SDS011;5055;52.054;8.524;2023-04-10T10:45:36;0.20;;;0.20;;
10029;SDS011;5055;52.054;8.524;2023-04-10T10:48:07;0.20;;;0.20;;
10029;SDS011;5055;52.054;8.524;2023-04-10T10:50:52;0.20;;;0.20;;
10029;SDS011;5055;52.054;8.524;2023-04-10T10:59:02;0.20;;;0.20;;
10029;SDS011;5055;52.054;8.524;2023-04-10T11:01:30;0.20;;;0.20;;
10029;SDS011;5055;52.054;8.524;2023-04-10T11:03:59;0.20;;;0.20;;
10029;SDS011;5055;52.054;8.524;2023-04-10T11:12:17;0.20;;;0.20;;
10029;SDS011;5055;52.054;8.524;2023-04-10T11:14:55;0.20;;;0.20;;
10029;SDS011;5055;52.054;8.524;2023-04-10T11:20:19;0.20;;;0.20;;
10029;SDS011;5055;52.054;8.524;2023-04-10T11:23:08;0.20;;;0.20;;
10029;SDS011;5055;52.054;8.524;2023-04-10T11:28:34;0.20;;;0.20;;
10029;SDS011;5055;52.054;8.524;2023-04-10T11:31:12;0.20;;;0.20;;
10029;SDS011;5055;52.054;8.524;2023-04-10T11:33:45;0.20;;;0.20;;
10029;SDS011;5055;52.054;8.524;2023-04-10T11:36:14;0.20;;;0.20;;
10029;SDS011;5055;52.054;8.524;2023-04-10T11:38:56;0.20;;;0.20;;
10029;SDS011;5055;52.054;8.524;2023-04-10T11:41:27;0.20;;;0.20;;
10029;SDS011;5055;52.054;8.524;2023-04-10T11:43:57;0.20;;;0.20;;
10029;SDS011;5055;52.054;8.524;2023-04-10T11:46:26;0.20;;;0.20;;
10029;SDS011;5055;52.054;8.524;2023-04-10T11:48:55;0.20;;;0.20;;
10029;SDS011;5055;52.054;8.524;2023-04-10T11:51:25;0.20;;;0.20;;
10029;SDS011;5055;52.054;8.524;2023-04-10T11:54:03;0.20;;;0.20;;
10029;SDS011;5055;52.054;8.524;2023-04-10T11:56:36;0.20;;;0.20;;
10029;SDS011;5055;52.054;8.524;2023-04-10T11:59:05;0.20;;;0.20;;
10029;SDS011;5055;52.054;8.524;2023-04-10T12:01:36;0.20;;;0.20;;
10029;SDS011;5055;52.054;8.524;2023-04-10T12:04:14;0.20;;;0.20;;
10029;SDS011;5055;52.054;8.524;2023-04-10T12:06:43;0.23;;;0.23;;
10029;SDS011;5055;52.054;8.524;2023-04-10T12:09:12;0.20;;;0.20;;
10029;SDS011;5055;52.054;8.524;2023-04-10T12:11:48;0.20;;;0.20;;
10029;SDS011;5055;52.054;8.524;2023-04-10T12:14:18;0.20;;;0.20;;
10029;SDS011;5055;52.054;8.524;2023-04-10T12:16:47;0.20;;;0.20;;
10029;SDS011;5055;52.054;8.524;2023-04-10T12:19:16;0.20;;;0.20;;
10029;SDS011;5055;52.054;8.524;2023-04-10T12:21:45;0.20;;;0.20;;
10029;SDS011;5055;52.054;8.524;2023-04-10T12:27:15;0.20;;;0.20;;
10029;SDS011;5055;52.054;8.524;2023-04-10T12:29:44;0.20;;;0.20;;
10029;SDS011;5055;52.054;8.524;2023-04-10T12:32:12;0.20;;;0.20;;
10029;SDS011;5055;52.054;8.524;2023-04-10T12:34:41;0.20;;;0.20;;
10029;SDS011;5055;52.054;8.524;2023-04-10T12:37:15;0.20;;;0.20;;
10029;SDS011;5055;52.054;8.524;2023-04-10T12:39:44;0.20;;;0.20;;
10029;SDS011;5055;52.054;8.524;2023-04-10T12:42:12;0.20;;;0.20;;
10029;SDS011;5055;52.054;8.524;2023-04-10T12:44:53;0.20;;;0.20;;
10029;SDS011;5055;52.054;8.524;2023-04-10T12:47:22;0.13;;;0.13;;
10029;SDS011;5055;52.054;8.524;2023-04-10T12:52:43;0.20;;;0.20;;
10029;SDS011;5055;52.054;8.524;2023-04-10T12:55:13;0.10;;;0.10;;
10029;SDS011;5055;52.054;8.524;2023-04-10T12:57:43;0.20;;;0.20;;
10029;SDS011;5055;52.054;8.524;2023-04-10T13:00:14;0.20;;;0.20;;
10029;SDS011;5055;52.054;8.524;2023-04-10T13:02:45;0.20;;;0.20;;
10029;SDS011;5055;52.054;8.524;2023-04-10T13:05:14;0.20;;;0.20;;
10029;SDS011;5055;52.054;8.524;2023-04-10T13:07:42;0.23;;;0.23;;
10029;SDS011;5055;52.054;8.524;2023-04-10T13:10:11;0.20;;;0.20;;
10029;SDS011;5055;52.054;8.524;2023-04-10T13:12:39;0.20;;;0.20;;
10029;SDS011;5055;52.054;8.524;2023-04-10T13:15:08;0.20;;;0.20;;
10029;SDS011;5055;52.054;8.524;2023-04-10T13:17:38;0.20;;;0.20;;
10029;SDS011;5055;52.054;8.524;2023-04-10T13:20:08;0.20;;;0.20;;
10029;SDS011;5055;52.054;8.524;2023-04-10T13:22:36;0.20;;;0.20;;
10029;SDS011;5055;52.054;8.524;2023-04-10T13:25:04;0.20;;;0.20;;
10029;SDS011;5055;52.054;8.524;2023-04-10T13:27:33;0.20;;;0.20;;
10029;SDS011;5055;52.054;8.524;2023-04-10T13:30:01;0.20;;;0.20;;
10029;SDS011;5055;52.054;8.524;2023-04-10T13:32:30;0.10;;;0.10;;
10029;SDS011;5055;52.054;8.524;2023-04-10T13:34:59;0.10;;;0.10;;
10029;SDS011;5055;52.054;8.524;2023-04-10T13:37:27;0.20;;;0.20;;
10029;SDS011;5055;52.054;8.524;2023-04-10T13:39:56;0.10;;;0.10;;
10029;SDS011;5055;52.054;8.524;2023-04-10T13:42:24;0.10;;;0.10;;
10029;SDS011;5055;52.054;8.524;2023-04-10T13:44:52;0.10;;;0.10;;
10029;SDS011;5055;52.054;8.524;2023-04-10T13:47:21;0.20;;;0.20;;
10029;SDS011;5055;52.054;8.524;2023-04-10T13:49:50;0.20;;;0.20;;
10029;SDS011;5055;52.054;8.524;2023-04-10T13:52:20;0.10;;;0.10;;
10029;SDS011;5055;52.054;8.524;2023-04-10T13:54:48;0.10;;;0.10;;
10029;SDS011;5055;52.054;8.524;2023-04-10T13:57:16;0.10;;;0.10;;
10029;SDS011;5055;52.054;8.524;2023-04-10T13:59:44;0.20;;;0.20;;
10029;SDS011;5055;52.054;8.524;2023-04-10T14:02:13;0.10;;;0.10;;
10029;SDS011;5055;52.054;8.524;2023-04-10T14:04:41;0.20;;;0.20;;
10029;SDS011;5055;52.054;8.524;2023-04-10T14:07:11;0.20;;;0.20;;
10029;SDS011;5055;52.054;8.524;2023-04-10T14:09:40;0.20;;;0.20;;
10029;SDS011;5055;52.054;8.524;2023-04-10T14:12:08;0.20;;;0.20;;
10029;SDS011;5055;52.054;8.524;2023-04-10T14:14:37;0.20;;;0.20;;
10029;SDS011;5055;52.054;8.524;2023-04-10T14:17:05;0.20;;;0.20;;
10029;SDS011;5055;52.054;8.524;2023-04-10T14:19:33;0.20;;;0.20;;
10029;SDS011;5055;52.054;8.524;2023-04-10T14:22:02;0.20;;;0.20;;
10029;SDS011;5055;52.054;8.524;2023-04-10T14:24:30;0.10;;;0.10;;
10029;SDS011;5055;52.054;8.524;2023-04-10T14:26:59;0.20;;;0.20;;
10029;SDS011;5055;52.054;8.524;2023-04-10T14:29:27;0.20;;;0.20;;
10029;SDS011;5055;52.054;8.524;2023-04-10T14:32:05;0.20;;;0.20;;
10029;SDS011;5055;52.054;8.524;2023-04-10T14:34:34;0.10;;;0.10;;
10029;SDS011;5055;52.054;8.524;2023-04-10T14:37:02;0.20;;;0.20;;
10029;SDS011;5055;52.054;8.524;2023-04-10T14:39:31;0.10;;;0.10;;
10029;SDS011;5055;52.054;8.524;2023-04-10T14:42:11;0.10;;;0.10;;
10029;SDS011;5055;52.054;8.524;2023-04-10T14:44:41;0.10;;;0.10;;
10029;SDS011;5055;52.054;8.524;2023-04-10T14:47:11;0.20;;;0.20;;
10029;SDS011;5055;52.054;8.524;2023-04-10T14:49:39;0.10;;;0.10;;
10029;SDS011;5055;52.054;8.524;2023-04-10T14:52:08;0.20;;;0.20;;
10029;SDS011;5055;52.054;8.524;2023-04-10T14:54:36;0.10;;;0.10;;
10029;SDS011;5055;52.054;8.524;2023-04-10T14:57:07;0.10;;;0.10;;
10029;SDS011;5055;52.054;8.524;2023-04-10T14:59:43;0.10;;;0.10;;
10029;SDS011;5055;52.054;8.524;2023-04-10T15:02:13;0.20;;;0.20;;
10029;SDS011;5055;52.054;8.524;2023-04-10T15:04:42;0.20;;;0.20;;
10029;SDS011;5055;52.054;8.524;2023-04-10T15:07:10;0.10;;;0.10;;
10029;SDS011;5055;52.054;8.524;2023-04-10T15:09:39;0.20;;;0.20;;
10029;SDS011;5055;52.054;8.524;2023-04-10T15:12:09;0.20;;;0.20;;
10029;SDS011;5055;52.054;8.524;2023-04-10T15:14:40;0.10;;;0.10;;
10029;SDS011;5055;52.054;8.524;2023-04-10T15:17:10;0.20;;;0.20;;
10029;SDS011;5055;52.054;8.524;2023-04-10T15:19:38;0.10;;;0.10;;
10029;SDS011;5055;52.054;8.524;2023-04-10T15:22:07;0.10;;;0.10;;
10029;SDS011;5055;52.054;8.524;2023-04-10T15:24:36;0.10;;;0.10;;
10029;SDS011;5055;52.054;8.524;2023-04-10T15:27:17;0.10;;;0.10;;
10029;SDS011;5055;52.054;8.524;2023-04-10T15:29:46;0.10;;;0.10;;
10029;SDS011;5055;52.054;8.524;2023-04-10T15:32:15;0.20;;;0.20;;
10029;SDS011;5055;52.054;8.524;2023-04-10T15:34:43;0.10;;;0.10;;
10029;SDS011;5055;52.054;8.524;2023-04-10T15:37:12;0.10;;;0.10;;
10029;SDS011;5055;52.054;8.524;2023-04-10T15:39:40;0.20;;;0.20;;
10029;SDS011;5055;52.054;8.524;2023-04-10T15:42:08;0.10;;;0.10;;
10029;SDS011;5055;52.054;8.524;2023-04-10T15:44:36;0.20;;;0.20;;
10029;SDS011;5055;52.054;8.524;2023-04-10T15:47:04;0.20;;;0.20;;
10029;SDS011;5055;52.054;8.524;2023-04-10T15:49:34;0.20;;;0.20;;